sensor_id;sensor_type;location;lat;lon;timestamp;P1;durP1;ratioP1;P2;durP2;ratioP2
37777;SDS011;23615;51.506;7.678;2023-04-30T00:00:28;2.65;;;2.45;;
37777;SDS011;23615;51.506;7.678;2023-04-30T00:02:53;2.40;;;2.20;;
37777;SDS011;23615;51.506;7.678;2023-04-30T00:05:19;2.72;;;2.20;;
37777;SDS011;23615;51.506;7.678;2023-04-30T00:07:44;2.80;;;2.47;;
37777;SDS011;23615;51.506;7.678;2023-04-30T00:10:10;2.10;;;1.90;;
37777;SDS011;23615;51.506;7.678;2023-04-30T00:12:35;1.97;;;1.87;;
37777;SDS011;23615;51.506;7.678;2023-04-30T00:15:01;2.17;;;2.00;;
37777;SDS011;23615;51.506;7.678;2023-04-30T00:17:26;2.27;;;2.07;;
37777;SDS011;23615;51.506;7.678;2023-04-30T00:19:52;3.35;;;2.78;;
37777;SDS011;23615;51.506;7.678;2023-04-30T00:22:17;2.58;;;2.38;;
37777;SDS011;23615;51.506;7.678;2023-04-30T00:24:43;2.93;;;2.73;;
37777;SDS011;23615;51.506;7.678;2023-04-30T00:27:08;2.83;;;2.63;;
37777;SDS011;23615;51.506;7.678;2023-04-30T00:29:33;2.50;;;2.30;;
37777;SDS011;23615;51.506;7.678;2023-04-30T00:31:59;2.93;;;2.60;;
37777;SDS011;23615;51.506;7.678;2023-04-30T00:34:24;2.57;;;2.37;;
37777;SDS011;23615;51.506;7.678;2023-04-30T00:36:49;2.40;;;2.20;;
37777;SDS011;23615;51.506;7.678;2023-04-30T00:39:15;2.40;;;2.17;;
37777;SDS011;23615;51.506;7.678;2023-04-30T00:41:40;2.50;;;2.17;;
37777;SDS011;23615;51.506;7.678;2023-04-30T00:44:06;2.40;;;2.20;;
37777;SDS011;23615;51.506;7.678;2023-04-30T00:46:32;1.93;;;1.60;;
37777;SDS011;23615;51.506;7.678;2023-04-30T00:48:57;1.70;;;1.60;;
37777;SDS011;23615;51.506;7.678;2023-04-30T00:51:24;1.95;;;1.77;;
37777;SDS011;23615;51.506;7.678;2023-04-30T00:53:50;2.10;;;1.73;;
37777;SDS011;23615;51.506;7.678;2023-04-30T00:56:15;1.85;;;1.60;;
37777;SDS011;23615;51.506;7.678;2023-04-30T00:58:41;2.47;;;2.10;;
37777;SDS011;23615;51.506;7.678;2023-04-30T01:01:06;1.60;;;1.50;;
37777;SDS011;23615;51.506;7.678;2023-04-30T01:03:32;2.30;;;1.90;;
37777;SDS011;23615;51.506;7.678;2023-04-30T01:05:59;2.10;;;1.95;;
37777;SDS011;23615;51.506;7.678;2023-04-30T01:08:25;2.60;;;2.27;;
37777;SDS011;23615;51.506;7.678;2023-04-30T01:10:52;2.22;;;1.90;;
37777;SDS011;23615;51.506;7.678;2023-04-30T01:13:35;2.40;;;2.20;;
37777;SDS011;23615;51.506;7.678;2023-04-30T01:18:45;2.20;;;1.80;;
37777;SDS011;23615;51.506;7.678;2023-04-30T01:21:15;2.17;;;1.95;;
37777;SDS011;23615;51.506;7.678;2023-04-30T01:29:28;2.30;;;2.10;;
37777;SDS011;23615;51.506;7.678;2023-04-30T01:31:54;2.97;;;2.35;;
37777;SDS011;23615;51.506;7.678;2023-04-30T01:34:19;2.60;;;2.40;;
37777;SDS011;23615;51.506;7.678;2023-04-30T01:41:58;2.20;;;2.00;;
37777;SDS011;23615;51.506;7.678;2023-04-30T01:52:52;1.20;;;1.10;;
37777;SDS011;23615;51.506;7.678;2023-04-30T01:55:35;1.33;;;1.20;;
37777;SDS011;23615;51.506;7.678;2023-04-30T01:58:06;2.22;;;2.03;;
37777;SDS011;23615;51.506;7.678;2023-04-30T02:00:34;2.60;;;2.05;;
37777;SDS011;23615;51.506;7.678;2023-04-30T02:02:59;1.80;;;1.70;;
37777;SDS011;23615;51.506;7.678;2023-04-30T02:05:25;1.73;;;1.63;;
37777;SDS011;23615;51.506;7.678;2023-04-30T02:07:50;1.77;;;1.67;;
37777;SDS011;23615;51.506;7.678;2023-04-30T02:10:17;1.30;;;1.20;;
37777;SDS011;23615;51.506;7.678;2023-04-30T02:12:45;1.40;;;1.30;;
37777;SDS011;23615;51.506;7.678;2023-04-30T02:15:10;1.40;;;1.30;;
37777;SDS011;23615;51.506;7.678;2023-04-30T02:17:36;2.15;;;1.70;;
37777;SDS011;23615;51.506;7.678;2023-04-30T02:20:01;1.40;;;1.30;;
37777;SDS011;23615;51.506;7.678;2023-04-30T02:22:27;2.20;;;2.00;;
37777;SDS011;23615;51.506;7.678;2023-04-30T02:24:52;2.17;;;1.60;;
37777;SDS011;23615;51.506;7.678;2023-04-30T02:27:19;1.02;;;1.02;;
37777;SDS011;23615;51.506;7.678;2023-04-30T02:29:46;2.40;;;1.75;;
37777;SDS011;23615;51.506;7.678;2023-04-30T02:32:11;1.67;;;1.50;;
37777;SDS011;23615;51.506;7.678;2023-04-30T02:34:37;2.93;;;2.00;;
37777;SDS011;23615;51.506;7.678;2023-04-30T02:37:02;1.80;;;1.70;;
37777;SDS011;23615;51.506;7.678;2023-04-30T02:39:27;1.67;;;1.57;;
37777;SDS011;23615;51.506;7.678;2023-04-30T02:41:52;2.90;;;2.60;;
37777;SDS011;23615;51.506;7.678;2023-04-30T02:44:18;1.93;;;1.77;;
37777;SDS011;23615;51.506;7.678;2023-04-30T02:46:43;2.17;;;1.97;;
37777;SDS011;23615;51.506;7.678;2023-04-30T02:49:08;1.77;;;1.65;;
37777;SDS011;23615;51.506;7.678;2023-04-30T02:51:34;1.88;;;1.70;;
37777;SDS011;23615;51.506;7.678;2023-04-30T02:53:59;1.75;;;1.65;;
37777;SDS011;23615;51.506;7.678;2023-04-30T02:56:24;2.03;;;1.93;;
37777;SDS011;23615;51.506;7.678;2023-04-30T02:58:50;2.50;;;2.30;;
37777;SDS011;23615;51.506;7.678;2023-04-30T03:01:15;2.27;;;2.07;;
37777;SDS011;23615;51.506;7.678;2023-04-30T03:03:41;1.58;;;1.48;;
37777;SDS011;23615;51.506;7.678;2023-04-30T03:06:06;1.73;;;1.60;;
37777;SDS011;23615;51.506;7.678;2023-04-30T03:08:31;1.37;;;1.27;;
37777;SDS011;23615;51.506;7.678;2023-04-30T03:10:57;1.47;;;1.37;;
37777;SDS011;23615;51.506;7.678;2023-04-30T03:13:22;1.20;;;1.10;;
37777;SDS011;23615;51.506;7.678;2023-04-30T03:15:57;1.40;;;1.30;;
37777;SDS011;23615;51.506;7.678;2023-04-30T03:18:23;1.47;;;1.37;;
37777;SDS011;23615;51.506;7.678;2023-04-30T03:20:49;1.23;;;0.90;;
37777;SDS011;23615;51.506;7.678;2023-04-30T03:23:14;1.27;;;1.17;;
37777;SDS011;23615;51.506;7.678;2023-04-30T03:25:39;1.87;;;1.47;;
37777;SDS011;23615;51.506;7.678;2023-04-30T03:28:04;1.57;;;1.47;;
37777;SDS011;23615;51.506;7.678;2023-04-30T03:30:30;2.20;;;1.73;;
37777;SDS011;23615;51.506;7.678;2023-04-30T03:32:55;2.20;;;2.00;;
37777;SDS011;23615;51.506;7.678;2023-04-30T03:35:20;2.20;;;2.00;;
37777;SDS011;23615;51.506;7.678;2023-04-30T03:37:46;2.13;;;1.93;;
37777;SDS011;23615;51.506;7.678;2023-04-30T03:40:11;1.80;;;1.70;;
37777;SDS011;23615;51.506;7.678;2023-04-30T03:42:37;1.27;;;1.17;;
37777;SDS011;23615;51.506;7.678;2023-04-30T03:45:02;1.73;;;1.48;;
37777;SDS011;23615;51.506;7.678;2023-04-30T03:47:28;1.60;;;1.50;;
37777;SDS011;23615;51.506;7.678;2023-04-30T03:49:53;1.70;;;1.60;;
37777;SDS011;23615;51.506;7.678;2023-04-30T03:52:19;1.30;;;1.17;;
37777;SDS011;23615;51.506;7.678;2023-04-30T03:54:45;1.80;;;1.70;;
37777;SDS011;23615;51.506;7.678;2023-04-30T03:57:10;1.60;;;1.50;;
37777;SDS011;23615;51.506;7.678;2023-04-30T03:59:37;1.63;;;1.52;;
37777;SDS011;23615;51.506;7.678;2023-04-30T04:02:04;1.40;;;1.30;;
37777;SDS011;23615;51.506;7.678;2023-04-30T04:04:30;2.33;;;2.13;;
37777;SDS011;23615;51.506;7.678;2023-04-30T04:06:55;1.77;;;1.67;;
37777;SDS011;23615;51.506;7.678;2023-04-30T04:09:21;1.85;;;1.75;;
37777;SDS011;23615;51.506;7.678;2023-04-30T04:11:46;1.40;;;1.30;;
37777;SDS011;23615;51.506;7.678;2023-04-30T04:14:11;1.50;;;1.03;;
37777;SDS011;23615;51.506;7.678;2023-04-30T04:16:37;1.43;;;1.33;;
37777;SDS011;23615;51.506;7.678;2023-04-30T04:19:02;2.07;;;1.73;;
37777;SDS011;23615;51.506;7.678;2023-04-30T04:21:28;1.70;;;1.50;;
37777;SDS011;23615;51.506;7.678;2023-04-30T04:23:53;1.20;;;1.10;;
37777;SDS011;23615;51.506;7.678;2023-04-30T04:26:19;2.55;;;2.35;;
37777;SDS011;23615;51.506;7.678;2023-04-30T04:28:45;3.50;;;3.20;;
37777;SDS011;23615;51.506;7.678;2023-04-30T04:31:11;4.13;;;3.60;;
37777;SDS011;23615;51.506;7.678;2023-04-30T04:33:37;4.60;;;4.17;;
37777;SDS011;23615;51.506;7.678;2023-04-30T04:36:02;5.10;;;4.60;;
37777;SDS011;23615;51.506;7.678;2023-04-30T04:38:28;4.88;;;4.38;;
37777;SDS011;23615;51.506;7.678;2023-04-30T04:40:53;4.13;;;3.72;;
37777;SDS011;23615;51.506;7.678;2023-04-30T04:43:19;3.23;;;2.93;;
37777;SDS011;23615;51.506;7.678;2023-04-30T04:45:45;4.40;;;4.00;;
37777;SDS011;23615;51.506;7.678;2023-04-30T04:48:11;3.90;;;3.42;;
37777;SDS011;23615;51.506;7.678;2023-04-30T04:50:37;4.83;;;4.43;;
37777;SDS011;23615;51.506;7.678;2023-04-30T04:53:02;4.40;;;4.00;;
37777;SDS011;23615;51.506;7.678;2023-04-30T04:55:27;7.37;;;6.67;;
37777;SDS011;23615;51.506;7.678;2023-04-30T04:57:52;7.40;;;6.13;;
37777;SDS011;23615;51.506;7.678;2023-04-30T05:00:18;6.30;;;5.57;;
37777;SDS011;23615;51.506;7.678;2023-04-30T05:02:45;6.75;;;5.75;;
37777;SDS011;23615;51.506;7.678;2023-04-30T05:05:11;6.17;;;5.43;;
37777;SDS011;23615;51.506;7.678;2023-04-30T05:07:36;7.27;;;5.77;;
37777;SDS011;23615;51.506;7.678;2023-04-30T05:10:01;5.33;;;4.83;;
37777;SDS011;23615;51.506;7.678;2023-04-30T05:12:27;6.83;;;6.13;;
37777;SDS011;23615;51.506;7.678;2023-04-30T05:14:52;6.27;;;5.67;;
37777;SDS011;23615;51.506;7.678;2023-04-30T05:17:17;5.10;;;4.43;;
37777;SDS011;23615;51.506;7.678;2023-04-30T05:19:42;5.72;;;5.22;;
37777;SDS011;23615;51.506;7.678;2023-04-30T05:22:08;5.87;;;5.10;;
37777;SDS011;23615;51.506;7.678;2023-04-30T05:24:33;7.53;;;6.43;;
37777;SDS011;23615;51.506;7.678;2023-04-30T05:26:58;5.70;;;5.20;;
37777;SDS011;23615;51.506;7.678;2023-04-30T05:29:24;8.93;;;7.40;;
37777;SDS011;23615;51.506;7.678;2023-04-30T05:31:49;11.40;;;7.47;;
37777;SDS011;23615;51.506;7.678;2023-04-30T05:34:14;7.80;;;6.93;;
37777;SDS011;23615;51.506;7.678;2023-04-30T05:36:40;9.40;;;7.53;;
37777;SDS011;23615;51.506;7.678;2023-04-30T05:39:05;9.03;;;7.90;;
37777;SDS011;23615;51.506;7.678;2023-04-30T05:41:30;7.87;;;7.07;;
37777;SDS011;23615;51.506;7.678;2023-04-30T05:43:56;7.40;;;6.70;;
37777;SDS011;23615;51.506;7.678;2023-04-30T05:46:21;7.80;;;7.00;;
37777;SDS011;23615;51.506;7.678;2023-04-30T05:48:46;9.00;;;7.53;;
37777;SDS011;23615;51.506;7.678;2023-04-30T05:51:12;8.03;;;6.63;;
37777;SDS011;23615;51.506;7.678;2023-04-30T05:53:37;7.37;;;6.67;;
37777;SDS011;23615;51.506;7.678;2023-04-30T05:56:03;9.03;;;8.07;;
37777;SDS011;23615;51.506;7.678;2023-04-30T05:58:28;10.57;;;9.47;;
37777;SDS011;23615;51.506;7.678;2023-04-30T06:00:53;9.20;;;8.30;;
37777;SDS011;23615;51.506;7.678;2023-04-30T06:03:18;9.37;;;8.37;;
37777;SDS011;23615;51.506;7.678;2023-04-30T06:05:44;8.63;;;7.57;;
37777;SDS011;23615;51.506;7.678;2023-04-30T06:08:11;11.17;;;8.57;;
37777;SDS011;23615;51.506;7.678;2023-04-30T06:10:36;14.87;;;10.00;;
37777;SDS011;23615;51.506;7.678;2023-04-30T06:13:02;10.10;;;8.43;;
37777;SDS011;23615;51.506;7.678;2023-04-30T06:15:28;12.00;;;10.60;;
37777;SDS011;23615;51.506;7.678;2023-04-30T06:17:53;12.50;;;10.70;;
37777;SDS011;23615;51.506;7.678;2023-04-30T06:20:18;10.73;;;9.63;;
37777;SDS011;23615;51.506;7.678;2023-04-30T06:22:44;10.47;;;9.10;;
37777;SDS011;23615;51.506;7.678;2023-04-30T06:25:09;11.23;;;9.67;;
37777;SDS011;23615;51.506;7.678;2023-04-30T06:27:34;12.37;;;9.70;;
37777;SDS011;23615;51.506;7.678;2023-04-30T06:29:59;12.80;;;10.13;;
37777;SDS011;23615;51.506;7.678;2023-04-30T06:32:25;10.23;;;9.13;;
37777;SDS011;23615;51.506;7.678;2023-04-30T06:34:51;9.93;;;8.93;;
37777;SDS011;23615;51.506;7.678;2023-04-30T06:37:16;10.70;;;9.60;;
37777;SDS011;23615;51.506;7.678;2023-04-30T06:39:42;9.32;;;8.00;;
37777;SDS011;23615;51.506;7.678;2023-04-30T06:42:08;9.37;;;8.37;;
37777;SDS011;23615;51.506;7.678;2023-04-30T06:44:33;10.07;;;9.03;;
37777;SDS011;23615;51.506;7.678;2023-04-30T06:46:58;11.90;;;8.90;;
37777;SDS011;23615;51.506;7.678;2023-04-30T06:49:23;9.93;;;8.60;;
37777;SDS011;23615;51.506;7.678;2023-04-30T06:51:49;8.70;;;7.80;;
37777;SDS011;23615;51.506;7.678;2023-04-30T06:54:14;8.80;;;7.90;;
37777;SDS011;23615;51.506;7.678;2023-04-30T06:56:40;8.77;;;6.97;;
37777;SDS011;23615;51.506;7.678;2023-04-30T06:59:05;8.60;;;7.67;;
37777;SDS011;23615;51.506;7.678;2023-04-30T07:01:30;10.17;;;7.93;;
37777;SDS011;23615;51.506;7.678;2023-04-30T07:03:56;10.47;;;8.20;;
37777;SDS011;23615;51.506;7.678;2023-04-30T07:06:21;9.93;;;7.73;;
37777;SDS011;23615;51.506;7.678;2023-04-30T07:08:46;7.80;;;6.97;;
37777;SDS011;23615;51.506;7.678;2023-04-30T07:11:12;8.52;;;7.32;;
37777;SDS011;23615;51.506;7.678;2023-04-30T07:13:37;8.53;;;7.27;;
37777;SDS011;23615;51.506;7.678;2023-04-30T07:16:03;8.23;;;7.20;;
37777;SDS011;23615;51.506;7.678;2023-04-30T07:18:29;8.40;;;7.50;;
37777;SDS011;23615;51.506;7.678;2023-04-30T07:20:55;9.43;;;7.40;;
37777;SDS011;23615;51.506;7.678;2023-04-30T07:23:20;7.03;;;6.33;;
37777;SDS011;23615;51.506;7.678;2023-04-30T07:25:45;7.67;;;6.97;;
37777;SDS011;23615;51.506;7.678;2023-04-30T07:28:11;8.40;;;7.50;;
37777;SDS011;23615;51.506;7.678;2023-04-30T07:30:36;8.63;;;7.67;;
37777;SDS011;23615;51.506;7.678;2023-04-30T07:33:01;7.80;;;6.57;;
37777;SDS011;23615;51.506;7.678;2023-04-30T07:35:27;8.67;;;7.00;;
37777;SDS011;23615;51.506;7.678;2023-04-30T07:37:52;8.30;;;6.93;;
37777;SDS011;23615;51.506;7.678;2023-04-30T07:40:17;6.43;;;5.80;;
37777;SDS011;23615;51.506;7.678;2023-04-30T07:42:42;8.53;;;7.63;;
37777;SDS011;23615;51.506;7.678;2023-04-30T07:45:09;7.18;;;6.47;;
37777;SDS011;23615;51.506;7.678;2023-04-30T07:47:34;7.93;;;7.13;;
37777;SDS011;23615;51.506;7.678;2023-04-30T07:50:00;8.53;;;7.37;;
37777;SDS011;23615;51.506;7.678;2023-04-30T07:52:25;9.50;;;7.47;;
37777;SDS011;23615;51.506;7.678;2023-04-30T07:54:50;7.70;;;6.93;;
37777;SDS011;23615;51.506;7.678;2023-04-30T07:57:16;16.80;;;11.67;;
37777;SDS011;23615;51.506;7.678;2023-04-30T07:59:41;16.37;;;12.50;;
37777;SDS011;23615;51.506;7.678;2023-04-30T08:02:07;21.00;;;14.73;;
37777;SDS011;23615;51.506;7.678;2023-04-30T08:04:33;12.38;;;10.18;;
37777;SDS011;23615;51.506;7.678;2023-04-30T08:06:58;9.00;;;8.13;;
37777;SDS011;23615;51.506;7.678;2023-04-30T08:09:23;7.35;;;6.65;;
37777;SDS011;23615;51.506;7.678;2023-04-30T08:11:49;9.40;;;7.27;;
37777;SDS011;23615;51.506;7.678;2023-04-30T08:14:14;7.70;;;6.67;;
37777;SDS011;23615;51.506;7.678;2023-04-30T08:16:39;6.63;;;5.93;;
37777;SDS011;23615;51.506;7.678;2023-04-30T08:19:05;6.33;;;5.70;;
37777;SDS011;23615;51.506;7.678;2023-04-30T08:21:30;6.30;;;5.70;;
37777;SDS011;23615;51.506;7.678;2023-04-30T08:23:56;7.97;;;5.87;;
37777;SDS011;23615;51.506;7.678;2023-04-30T08:26:21;5.73;;;5.23;;
37777;SDS011;23615;51.506;7.678;2023-04-30T08:28:47;6.38;;;5.40;;
37777;SDS011;23615;51.506;7.678;2023-04-30T08:31:12;6.20;;;5.60;;
37777;SDS011;23615;51.506;7.678;2023-04-30T08:33:38;7.05;;;5.65;;
37777;SDS011;23615;51.506;7.678;2023-04-30T08:36:05;5.63;;;4.90;;
37777;SDS011;23615;51.506;7.678;2023-04-30T08:38:30;5.20;;;4.43;;
37777;SDS011;23615;51.506;7.678;2023-04-30T08:40:57;5.63;;;5.03;;
37777;SDS011;23615;51.506;7.678;2023-04-30T08:43:33;8.05;;;5.72;;
37777;SDS011;23615;51.506;7.678;2023-04-30T08:46:01;7.25;;;5.70;;
37777;SDS011;23615;51.506;7.678;2023-04-30T08:48:27;5.70;;;4.90;;
37777;SDS011;23615;51.506;7.678;2023-04-30T08:50:54;8.48;;;6.30;;
37777;SDS011;23615;51.506;7.678;2023-04-30T08:53:19;8.77;;;6.03;;
37777;SDS011;23615;51.506;7.678;2023-04-30T08:55:46;5.37;;;4.70;;
37777;SDS011;23615;51.506;7.678;2023-04-30T08:58:22;5.05;;;4.55;;
37777;SDS011;23615;51.506;7.678;2023-04-30T09:00:47;4.97;;;4.40;;
37777;SDS011;23615;51.506;7.678;2023-04-30T09:03:13;4.47;;;3.83;;
37777;SDS011;23615;51.506;7.678;2023-04-30T09:05:38;4.50;;;3.57;;
37777;SDS011;23615;51.506;7.678;2023-04-30T09:08:04;5.53;;;4.43;;
37777;SDS011;23615;51.506;7.678;2023-04-30T09:10:31;6.03;;;4.27;;
37777;SDS011;23615;51.506;7.678;2023-04-30T09:13:02;5.73;;;4.77;;
37777;SDS011;23615;51.506;7.678;2023-04-30T09:15:30;4.80;;;4.35;;
37777;SDS011;23615;51.506;7.678;2023-04-30T09:18:16;5.00;;;4.50;;
37777;SDS011;23615;51.506;7.678;2023-04-30T09:23:23;5.55;;;4.53;;
37777;SDS011;23615;51.506;7.678;2023-04-30T09:25:49;5.30;;;4.80;;
37777;SDS011;23615;51.506;7.678;2023-04-30T09:28:14;6.18;;;4.80;;
37777;SDS011;23615;51.506;7.678;2023-04-30T09:30:41;7.23;;;4.97;;
37777;SDS011;23615;51.506;7.678;2023-04-30T09:33:07;4.70;;;4.00;;
37777;SDS011;23615;51.506;7.678;2023-04-30T09:35:36;4.97;;;4.47;;
37777;SDS011;23615;51.506;7.678;2023-04-30T09:38:03;5.57;;;5.07;;
37777;SDS011;23615;51.506;7.678;2023-04-30T09:40:33;5.88;;;4.20;;
37777;SDS011;23615;51.506;7.678;2023-04-30T09:43:00;4.70;;;3.55;;
37777;SDS011;23615;51.506;7.678;2023-04-30T09:45:26;3.60;;;3.17;;
37777;SDS011;23615;51.506;7.678;2023-04-30T09:47:51;6.23;;;3.97;;
37777;SDS011;23615;51.506;7.678;2023-04-30T09:50:17;3.93;;;3.40;;
37777;SDS011;23615;51.506;7.678;2023-04-30T09:52:47;4.00;;;3.37;;
37777;SDS011;23615;51.506;7.678;2023-04-30T09:55:17;3.90;;;2.85;;
37777;SDS011;23615;51.506;7.678;2023-04-30T09:57:44;3.38;;;3.00;;
37777;SDS011;23615;51.506;7.678;2023-04-30T10:00:11;3.90;;;3.15;;
37777;SDS011;23615;51.506;7.678;2023-04-30T10:02:38;2.60;;;2.40;;
37777;SDS011;23615;51.506;7.678;2023-04-30T10:05:04;2.83;;;2.60;;
37777;SDS011;23615;51.506;7.678;2023-04-30T10:07:30;3.13;;;2.70;;
37777;SDS011;23615;51.506;7.678;2023-04-30T10:12:38;3.63;;;2.97;;
37777;SDS011;23615;51.506;7.678;2023-04-30T10:15:10;3.45;;;3.15;;
37777;SDS011;23615;51.506;7.678;2023-04-30T10:17:41;4.65;;;3.95;;
37777;SDS011;23615;51.506;7.678;2023-04-30T10:20:14;4.45;;;3.63;;
37777;SDS011;23615;51.506;7.678;2023-04-30T10:22:41;3.80;;;2.90;;
37777;SDS011;23615;51.506;7.678;2023-04-30T10:25:07;5.32;;;3.25;;
37777;SDS011;23615;51.506;7.678;2023-04-30T10:27:37;4.10;;;2.65;;
37777;SDS011;23615;51.506;7.678;2023-04-30T10:30:03;4.75;;;3.60;;
37777;SDS011;23615;51.506;7.678;2023-04-30T10:32:32;3.45;;;3.10;;
37777;SDS011;23615;51.506;7.678;2023-04-30T10:37:49;2.25;;;2.05;;
37777;SDS011;23615;51.506;7.678;2023-04-30T10:40:19;3.20;;;3.00;;
37777;SDS011;23615;51.506;7.678;2023-04-30T10:42:47;1.70;;;1.60;;
37777;SDS011;23615;51.506;7.678;2023-04-30T10:45:17;3.22;;;1.90;;
37777;SDS011;23615;51.506;7.678;2023-04-30T10:47:44;2.58;;;2.20;;
37777;SDS011;23615;51.506;7.678;2023-04-30T10:50:10;1.88;;;1.77;;
37777;SDS011;23615;51.506;7.678;2023-04-30T10:52:36;3.25;;;2.42;;
37777;SDS011;23615;51.506;7.678;2023-04-30T10:55:06;3.33;;;2.50;;
37777;SDS011;23615;51.506;7.678;2023-04-30T10:57:39;3.60;;;2.75;;
37777;SDS011;23615;51.506;7.678;2023-04-30T11:02:40;4.10;;;3.70;;
37777;SDS011;23615;51.506;7.678;2023-04-30T11:05:14;4.60;;;3.80;;
37777;SDS011;23615;51.506;7.678;2023-04-30T11:07:48;3.28;;;2.88;;
37777;SDS011;23615;51.506;7.678;2023-04-30T11:10:30;3.67;;;3.38;;
37777;SDS011;23615;51.506;7.678;2023-04-30T11:12:57;5.72;;;4.20;;
37777;SDS011;23615;51.506;7.678;2023-04-30T11:15:38;4.15;;;3.75;;
37777;SDS011;23615;51.506;7.678;2023-04-30T11:18:06;3.85;;;3.47;;
37777;SDS011;23615;51.506;7.678;2023-04-30T11:20:31;3.47;;;3.13;;
37777;SDS011;23615;51.506;7.678;2023-04-30T11:23:15;3.50;;;3.13;;
37777;SDS011;23615;51.506;7.678;2023-04-30T11:25:46;3.80;;;3.28;;
37777;SDS011;23615;51.506;7.678;2023-04-30T11:28:19;2.85;;;2.65;;
37777;SDS011;23615;51.506;7.678;2023-04-30T11:30:52;3.47;;;3.00;;
37777;SDS011;23615;51.506;7.678;2023-04-30T11:33:18;2.80;;;2.50;;
37777;SDS011;23615;51.506;7.678;2023-04-30T11:35:43;3.00;;;2.20;;
37777;SDS011;23615;51.506;7.678;2023-04-30T11:38:11;3.47;;;2.33;;
37777;SDS011;23615;51.506;7.678;2023-04-30T11:40:36;4.10;;;3.10;;
37777;SDS011;23615;51.506;7.678;2023-04-30T11:43:02;4.00;;;3.13;;
37777;SDS011;23615;51.506;7.678;2023-04-30T11:45:28;3.60;;;2.13;;
37777;SDS011;23615;51.506;7.678;2023-04-30T11:47:54;2.72;;;2.50;;
37777;SDS011;23615;51.506;7.678;2023-04-30T11:50:22;2.25;;;1.73;;
37777;SDS011;23615;51.506;7.678;2023-04-30T11:52:53;3.30;;;2.20;;
37777;SDS011;23615;51.506;7.678;2023-04-30T11:55:20;2.30;;;1.95;;
37777;SDS011;23615;51.506;7.678;2023-04-30T11:57:48;2.65;;;2.42;;
37777;SDS011;23615;51.506;7.678;2023-04-30T12:00:16;3.45;;;1.88;;
37777;SDS011;23615;51.506;7.678;2023-04-30T12:02:46;1.63;;;1.00;;
37777;SDS011;23615;51.506;7.678;2023-04-30T12:07:49;1.95;;;1.75;;
37777;SDS011;23615;51.506;7.678;2023-04-30T12:10:18;3.22;;;1.63;;
37777;SDS011;23615;51.506;7.678;2023-04-30T12:12:45;2.28;;;1.70;;
37777;SDS011;23615;51.506;7.678;2023-04-30T12:15:16;3.58;;;2.50;;
37777;SDS011;23615;51.506;7.678;2023-04-30T12:17:44;2.83;;;2.15;;
37777;SDS011;23615;51.506;7.678;2023-04-30T12:20:11;2.70;;;2.03;;
37777;SDS011;23615;51.506;7.678;2023-04-30T12:22:37;1.95;;;1.70;;
37777;SDS011;23615;51.506;7.678;2023-04-30T12:25:06;2.03;;;1.90;;
37777;SDS011;23615;51.506;7.678;2023-04-30T12:27:34;1.67;;;1.57;;
37777;SDS011;23615;51.506;7.678;2023-04-30T12:30:01;2.05;;;1.63;;
37777;SDS011;23615;51.506;7.678;2023-04-30T12:32:28;2.50;;;1.60;;
37777;SDS011;23615;51.506;7.678;2023-04-30T12:34:56;1.87;;;1.37;;
37777;SDS011;23615;51.506;7.678;2023-04-30T12:37:25;2.67;;;1.70;;
37777;SDS011;23615;51.506;7.678;2023-04-30T12:39:50;2.50;;;1.10;;
37777;SDS011;23615;51.506;7.678;2023-04-30T12:42:17;1.20;;;0.83;;
37777;SDS011;23615;51.506;7.678;2023-04-30T12:44:43;0.57;;;0.50;;
37777;SDS011;23615;51.506;7.678;2023-04-30T12:47:09;1.20;;;1.07;;
37777;SDS011;23615;51.506;7.678;2023-04-30T12:49:35;1.48;;;1.38;;
37777;SDS011;23615;51.506;7.678;2023-04-30T12:52:07;4.27;;;1.57;;
37777;SDS011;23615;51.506;7.678;2023-04-30T12:54:34;1.30;;;0.70;;
37777;SDS011;23615;51.506;7.678;2023-04-30T12:59:27;1.30;;;0.80;;
37777;SDS011;23615;51.506;7.678;2023-04-30T13:01:53;1.35;;;1.13;;
37777;SDS011;23615;51.506;7.678;2023-04-30T13:04:19;2.00;;;1.00;;
37777;SDS011;23615;51.506;7.678;2023-04-30T13:06:45;1.63;;;0.87;;
37777;SDS011;23615;51.506;7.678;2023-04-30T13:09:10;1.40;;;1.30;;
37777;SDS011;23615;51.506;7.678;2023-04-30T13:11:36;2.13;;;1.03;;
37777;SDS011;23615;51.506;7.678;2023-04-30T13:14:01;1.80;;;1.00;;
37777;SDS011;23615;51.506;7.678;2023-04-30T13:16:27;1.80;;;0.90;;
37777;SDS011;23615;51.506;7.678;2023-04-30T13:18:52;1.80;;;0.80;;
37777;SDS011;23615;51.506;7.678;2023-04-30T13:21:18;0.98;;;0.70;;
37777;SDS011;23615;51.506;7.678;2023-04-30T13:23:45;1.50;;;0.70;;
37777;SDS011;23615;51.506;7.678;2023-04-30T13:26:10;1.07;;;0.57;;
37777;SDS011;23615;51.506;7.678;2023-04-30T13:28:35;0.90;;;0.50;;
37777;SDS011;23615;51.506;7.678;2023-04-30T13:31:01;1.10;;;0.67;;
37777;SDS011;23615;51.506;7.678;2023-04-30T13:33:26;0.73;;;0.60;;
37777;SDS011;23615;51.506;7.678;2023-04-30T13:35:52;1.53;;;0.80;;
37777;SDS011;23615;51.506;7.678;2023-04-30T13:38:17;0.80;;;0.70;;
37777;SDS011;23615;51.506;7.678;2023-04-30T13:40:42;0.97;;;0.80;;
37777;SDS011;23615;51.506;7.678;2023-04-30T13:43:08;1.27;;;0.97;;
37777;SDS011;23615;51.506;7.678;2023-04-30T13:45:33;2.00;;;0.57;;
37777;SDS011;23615;51.506;7.678;2023-04-30T13:47:58;1.10;;;0.70;;
37777;SDS011;23615;51.506;7.678;2023-04-30T13:50:23;1.15;;;0.70;;
37777;SDS011;23615;51.506;7.678;2023-04-30T13:52:49;0.83;;;0.50;;
37777;SDS011;23615;51.506;7.678;2023-04-30T13:55:14;1.30;;;0.57;;
37777;SDS011;23615;51.506;7.678;2023-04-30T13:57:40;1.33;;;0.50;;
37777;SDS011;23615;51.506;7.678;2023-04-30T14:00:06;0.53;;;0.47;;
37777;SDS011;23615;51.506;7.678;2023-04-30T14:02:32;2.27;;;0.70;;
37777;SDS011;23615;51.506;7.678;2023-04-30T14:04:58;1.00;;;0.50;;
37777;SDS011;23615;51.506;7.678;2023-04-30T14:07:27;1.75;;;0.93;;
37777;SDS011;23615;51.506;7.678;2023-04-30T14:09:52;1.67;;;0.80;;
37777;SDS011;23615;51.506;7.678;2023-04-30T14:12:17;2.13;;;0.80;;
37777;SDS011;23615;51.506;7.678;2023-04-30T14:14:45;1.85;;;1.10;;
37777;SDS011;23615;51.506;7.678;2023-04-30T14:17:10;1.10;;;0.70;;
37777;SDS011;23615;51.506;7.678;2023-04-30T14:19:36;1.35;;;0.75;;
37777;SDS011;23615;51.506;7.678;2023-04-30T14:22:01;1.40;;;0.60;;
37777;SDS011;23615;51.506;7.678;2023-04-30T14:24:26;1.63;;;0.43;;
37777;SDS011;23615;51.506;7.678;2023-04-30T14:26:52;1.37;;;0.60;;
37777;SDS011;23615;51.506;7.678;2023-04-30T14:29:17;1.60;;;0.60;;
37777;SDS011;23615;51.506;7.678;2023-04-30T14:31:43;0.82;;;0.40;;
37777;SDS011;23615;51.506;7.678;2023-04-30T14:34:08;1.85;;;0.50;;
37777;SDS011;23615;51.506;7.678;2023-04-30T14:36:36;1.90;;;0.43;;
37777;SDS011;23615;51.506;7.678;2023-04-30T14:39:02;0.40;;;0.30;;
37777;SDS011;23615;51.506;7.678;2023-04-30T14:41:28;2.00;;;0.50;;
37777;SDS011;23615;51.506;7.678;2023-04-30T14:43:57;1.77;;;0.32;;
37777;SDS011;23615;51.506;7.678;2023-04-30T14:46:23;2.17;;;0.40;;
37777;SDS011;23615;51.506;7.678;2023-04-30T14:48:48;0.90;;;0.30;;
37777;SDS011;23615;51.506;7.678;2023-04-30T14:51:13;1.98;;;0.40;;
37777;SDS011;23615;51.506;7.678;2023-04-30T14:53:39;1.10;;;0.30;;
37777;SDS011;23615;51.506;7.678;2023-04-30T14:56:04;0.70;;;0.30;;
37777;SDS011;23615;51.506;7.678;2023-04-30T14:58:31;1.30;;;0.30;;
37777;SDS011;23615;51.506;7.678;2023-04-30T15:00:56;1.20;;;0.40;;
37777;SDS011;23615;51.506;7.678;2023-04-30T15:03:21;0.63;;;0.33;;
37777;SDS011;23615;51.506;7.678;2023-04-30T15:05:47;2.23;;;0.40;;
37777;SDS011;23615;51.506;7.678;2023-04-30T15:08:13;1.55;;;0.30;;
37777;SDS011;23615;51.506;7.678;2023-04-30T15:10:40;1.20;;;0.20;;
37777;SDS011;23615;51.506;7.678;2023-04-30T15:13:05;0.40;;;0.20;;
37777;SDS011;23615;51.506;7.678;2023-04-30T15:15:31;2.13;;;0.40;;
37777;SDS011;23615;51.506;7.678;2023-04-30T15:17:56;0.90;;;0.30;;